createdAt,value
2018-07-10T06:43:06.575Z,2640
2018-07-10T06:44:07.961Z,2452
2018-07-10T18:42:44.178Z,88
2018-07-10T18:43:45.591Z,88
2018-07-10T18:44:46.983Z,84
2018-07-10T18:45:48.391Z,84
2018-07-10T18:46:49.781Z,92
2018-07-10T18:47:51.209Z,108
2018-07-10T18:48:52.620Z,116
2018-07-10T18:49:54.040Z,124
2018-07-10T18:50:55.436Z,120
2018-07-10T18:51:57.473Z,104
2018-07-10T18:52:58.890Z,108
2018-07-10T18:54:00.383Z,116
2018-07-10T18:55:01.792Z,128
2018-07-10T18:56:03.769Z,132
2018-07-10T18:57:06.094Z,128
2018-07-10T18:58:07.505Z,120
2018-07-10T18:59:08.943Z,116
2018-07-10T19:00:12.491Z,100
2018-07-10T19:01:13.921Z,84
2018-07-10T19:02:15.872Z,72
2018-07-10T19:03:17.267Z,60
2018-07-10T19:04:18.782Z,52
2018-07-10T19:05:20.139Z,40
2018-07-10T19:06:21.545Z,40
2018-07-10T19:07:23.820Z,40
2018-07-10T19:08:25.200Z,40
2018-07-10T19:09:26.644Z,32
2018-07-10T19:10:28.216Z,28
2018-07-10T19:11:29.617Z,24
2018-07-10T19:12:31.044Z,20
2018-07-10T19:13:32.506Z,16
2018-07-10T19:14:33.920Z,16
2018-07-10T19:15:35.367Z,16
2018-07-10T19:16:37.679Z,16
2018-07-10T19:17:40.100Z,12
2018-07-10T19:18:42.090Z,8
2018-07-10T19:19:43.442Z,8
2018-07-10T19:20:44.889Z,8
2018-07-10T19:21:47.376Z,8
2018-07-10T19:22:48.847Z,8
2018-07-10T19:23:50.158Z,4
2018-07-10T19:24:51.555Z,8
2018-07-10T19:25:53.251Z,4
2018-07-10T19:26:54.651Z,8
2018-07-10T19:27:56.601Z,8
2018-07-10T19:28:58.032Z,8
2018-07-10T19:29:59.430Z,4
2018-07-10T19:31:01.787Z,8
2018-07-10T19:32:03.198Z,12
2018-07-10T19:33:04.626Z,8
2018-07-10T19:34:06.826Z,8
2018-07-10T19:35:08.284Z,8
2018-07-10T19:36:09.639Z,8
2018-07-10T19:37:11.808Z,8
2018-07-10T19:38:13.218Z,8
2018-07-10T19:39:14.629Z,4
2018-07-10T19:40:16.054Z,8
2018-07-10T19:41:17.414Z,4
2018-07-10T19:42:18.806Z,4
2018-07-10T19:43:20.219Z,4
2018-07-10T19:44:22.398Z,4
2018-07-10T19:45:25.388Z,4
2018-07-10T19:46:26.786Z,0
2018-07-10T19:47:28.192Z,4
2018-07-10T19:48:29.581Z,4
2018-07-10T19:49:30.989Z,0
2018-07-10T19:50:32.384Z,0
2018-07-10T19:51:33.767Z,0
2018-07-10T19:52:35.243Z,0
2018-07-10T19:53:37.521Z,0
2018-07-10T19:54:38.944Z,0
2018-07-10T19:55:41.221Z,0
2018-07-10T19:56:42.637Z,0
2018-07-10T19:57:44.701Z,0
2018-07-10T19:58:46.128Z,0
2018-07-10T19:59:47.521Z,0
2018-07-10T20:00:48.941Z,0
2018-07-10T20:01:51.011Z,0
2018-07-10T20:02:52.406Z,0
2018-07-10T20:03:54.569Z,0
2018-07-10T20:04:55.957Z,0
2018-07-10T20:05:57.371Z,0
2018-07-10T20:06:58.752Z,0
2018-07-10T20:08:01.829Z,0
2018-07-10T20:09:03.252Z,0
2018-07-10T20:10:06.145Z,0
2018-07-10T20:11:08.436Z,0
2018-07-10T20:12:10.439Z,0
2018-07-10T20:13:13.623Z,0
2018-07-10T20:14:15.056Z,0
2018-07-10T20:15:16.457Z,0
2018-07-10T20:16:17.874Z,0
2018-07-10T20:17:19.870Z,0
2018-07-10T20:18:21.675Z,0
2018-07-10T20:19:23.100Z,0
2018-07-10T20:20:24.483Z,0
2018-07-10T20:21:26.507Z,0
2018-07-10T20:22:27.910Z,0
2018-07-10T20:23:30.930Z,0
2018-07-10T20:24:33.213Z,0
2018-07-10T20:25:34.570Z,0
2018-07-10T20:26:36.527Z,0
2018-07-10T20:27:37.933Z,0
2018-07-10T20:28:41.454Z,0
2018-07-10T20:29:43.583Z,0
2018-07-10T20:30:44.991Z,0
2018-07-10T20:31:48.682Z,0
2018-07-10T20:32:51.528Z,0
2018-07-10T20:33:53.499Z,0
2018-07-10T20:34:56.052Z,0
2018-07-10T20:35:57.475Z,0
2018-07-10T20:37:00.462Z,0
2018-07-10T20:38:01.018Z,0
2018-07-10T20:39:02.965Z,0
2018-07-10T20:40:04.385Z,0
2018-07-10T20:41:05.814Z,0
2018-07-10T20:42:07.253Z,0
2018-07-10T20:43:11.014Z,0
2018-07-10T20:44:12.394Z,0
2018-07-10T20:45:14.428Z,0
2018-07-10T20:46:15.874Z,0
2018-07-10T20:47:17.956Z,0
2018-07-10T20:48:19.365Z,0
2018-07-10T20:49:21.490Z,0
2018-07-10T20:50:22.889Z,0
2018-07-10T20:51:24.328Z,0
2018-07-10T20:52:26.229Z,0
2018-07-10T20:53:28.356Z,0
2018-07-10T20:54:30.958Z,0
2018-07-10T20:55:32.961Z,0
2018-07-10T20:56:33.788Z,0
2018-07-10T20:57:36.040Z,0
2018-07-10T20:58:37.463Z,0
2018-07-10T20:59:38.873Z,0
2018-07-10T21:00:41.009Z,0
2018-07-10T21:01:42.464Z,0
2018-07-10T21:02:44.576Z,0
2018-07-10T21:03:46.628Z,0
2018-07-10T21:04:48.022Z,0
2018-07-10T21:05:49.445Z,0
2018-07-10T21:06:50.876Z,0
2018-07-10T21:07:52.344Z,0
2018-07-10T21:08:53.737Z,0
2018-07-10T21:09:55.653Z,0
2018-07-10T21:10:57.064Z,0
2018-07-10T21:11:58.491Z,0
2018-07-10T21:12:59.900Z,0
2018-07-10T21:14:01.324Z,0
2018-07-10T21:15:02.745Z,0
2018-07-10T21:16:04.139Z,0
2018-07-10T21:17:05.603Z,0
2018-07-10T21:18:07.723Z,0
2018-07-10T21:19:09.128Z,0
2018-07-10T21:20:10.968Z,0
2018-07-10T21:21:12.352Z,0
2018-07-10T21:22:14.334Z,0
2018-07-10T21:23:15.987Z,0
2018-07-10T21:24:17.373Z,0
2018-07-10T21:25:18.952Z,0
2018-07-10T21:26:20.812Z,0
2018-07-10T21:27:22.331Z,0
2018-07-10T21:28:23.742Z,0
2018-07-10T21:29:25.088Z,0
2018-07-10T21:30:27.253Z,0
2018-07-10T21:31:28.604Z,0
2018-07-10T21:32:29.999Z,0
2018-07-10T21:33:31.386Z,0
2018-07-10T21:34:32.802Z,0
2018-07-10T21:35:35.296Z,0
2018-07-10T21:36:37.358Z,0
2018-07-10T21:37:38.751Z,0
2018-07-10T21:38:41.845Z,0
2018-07-10T21:39:43.457Z,0
2018-07-10T21:40:44.834Z,0
2018-07-10T21:41:47.499Z,0
2018-07-10T21:42:48.882Z,0
2018-07-10T21:43:52.418Z,0
2018-07-10T21:44:53.769Z,0
2018-07-10T21:45:55.153Z,0
2018-07-10T21:46:56.545Z,0
2018-07-10T21:47:57.940Z,0
2018-07-10T21:48:59.334Z,0
2018-07-10T21:50:00.715Z,0
2018-07-10T21:51:02.102Z,0
2018-07-10T21:52:03.502Z,0
2018-07-10T21:53:04.855Z,0
2018-07-10T21:54:06.253Z,0
2018-07-10T21:55:07.644Z,0
2018-07-10T21:56:09.003Z,0
2018-07-10T21:57:10.385Z,0
2018-07-10T21:58:11.774Z,0
2018-07-10T21:59:13.117Z,0
2018-07-10T22:00:14.511Z,0
2018-07-10T22:01:15.906Z,0
2018-07-10T22:02:18.144Z,0
2018-07-10T22:03:19.527Z,0
2018-07-10T22:04:20.930Z,0
2018-07-10T22:05:22.329Z,0
2018-07-10T22:06:23.712Z,0
2018-07-10T22:07:25.097Z,0
2018-07-10T22:08:26.490Z,0
2018-07-10T22:09:27.953Z,0
2018-07-10T22:10:29.264Z,0
2018-07-10T22:11:30.657Z,0
2018-07-10T22:12:32.040Z,0
2018-07-10T22:13:33.424Z,0
2018-07-10T22:14:34.811Z,0
2018-07-10T22:15:36.214Z,0
2018-07-10T22:16:37.605Z,0
2018-07-10T22:17:38.982Z,0
2018-07-10T22:18:40.362Z,0
2018-07-10T22:19:41.748Z,0
2018-07-10T22:20:43.135Z,0
2018-07-10T22:21:44.527Z,0
2018-07-10T22:22:45.901Z,0
2018-07-10T22:23:47.292Z,0
2018-07-10T22:24:48.669Z,0
2018-07-10T22:25:50.075Z,0
2018-07-10T22:26:51.465Z,0
2018-07-10T22:27:52.858Z,0
2018-07-10T22:28:54.249Z,0
2018-07-10T22:29:55.636Z,0
2018-07-10T22:30:57.015Z,0
2018-07-10T22:31:58.397Z,0
2018-07-10T22:32:59.789Z,0
2018-07-10T22:34:01.165Z,0
2018-07-10T22:35:02.558Z,0
2018-07-10T22:36:03.951Z,0
2018-07-10T22:37:05.353Z,0
2018-07-10T22:38:06.726Z,0
2018-07-10T22:39:08.106Z,0
2018-07-10T22:40:09.506Z,0
2018-07-10T22:41:10.897Z,0
2018-07-10T22:42:12.273Z,0
2018-07-10T22:43:13.664Z,0
2018-07-10T22:44:15.042Z,0
2018-07-10T22:45:16.425Z,0
2018-07-10T22:46:17.810Z,0
2018-07-10T22:47:19.208Z,0
2018-07-10T22:48:20.588Z,0
2018-07-10T22:49:21.980Z,0
2018-07-10T22:50:23.367Z,0
2018-07-10T22:51:24.760Z,0
2018-07-10T22:52:26.148Z,0
2018-07-10T22:53:27.541Z,0
2018-07-10T22:54:28.926Z,0
2018-07-10T22:55:30.309Z,0
2018-07-10T22:56:31.698Z,0
2018-07-10T22:57:33.096Z,0
2018-07-10T22:58:34.479Z,0
2018-07-10T22:59:35.865Z,0
2018-07-10T23:00:37.244Z,0
2018-07-10T23:01:38.639Z,0
2018-07-10T23:02:40.039Z,0
2018-07-10T23:03:41.408Z,0
2018-07-10T23:04:42.825Z,0
2018-07-10T23:05:44.197Z,0
2018-07-10T23:06:45.577Z,0
2018-07-10T23:07:46.971Z,0
2018-07-10T23:08:48.356Z,0
2018-07-10T23:09:49.738Z,0
2018-07-10T23:10:51.135Z,0
2018-07-10T23:11:52.527Z,0
2018-07-10T23:12:53.919Z,0
2018-07-10T23:13:55.293Z,0
2018-07-10T23:14:56.687Z,0
2018-07-10T23:15:58.083Z,0
2018-07-10T23:16:59.468Z,0
2018-07-10T23:18:00.853Z,0
2018-07-10T23:19:03.182Z,0
2018-07-10T23:20:04.577Z,0
2018-07-10T23:21:05.961Z,0
2018-07-10T23:22:07.352Z,0
2018-07-10T23:23:08.736Z,0
2018-07-10T23:24:10.124Z,0
2018-07-10T23:25:11.514Z,0
2018-07-10T23:26:12.907Z,0
2018-07-10T23:27:14.305Z,0
2018-07-10T23:28:15.684Z,0
2018-07-10T23:29:17.065Z,0
2018-07-10T23:30:18.448Z,0
2018-07-10T23:31:19.840Z,0
2018-07-10T23:32:21.220Z,0
2018-07-10T23:33:22.598Z,0
2018-07-10T23:34:23.996Z,0
2018-07-10T23:35:25.398Z,0
2018-07-10T23:36:26.772Z,0
2018-07-10T23:37:28.161Z,0
2018-07-10T23:38:29.577Z,0
2018-07-10T23:39:30.930Z,0
2018-07-10T23:40:32.315Z,0
2018-07-10T23:41:33.704Z,0
2018-07-10T23:42:35.085Z,0
2018-07-10T23:43:36.469Z,0
2018-07-10T23:44:37.853Z,0
2018-07-10T23:45:39.238Z,0
2018-07-10T23:46:40.625Z,0
2018-07-10T23:47:42.017Z,0
2018-07-10T23:48:43.397Z,0
2018-07-10T23:49:44.776Z,0
2018-07-10T23:50:46.188Z,0
2018-07-10T23:51:47.516Z,0
2018-07-10T23:52:48.899Z,0
2018-07-10T23:53:50.296Z,0
2018-07-10T23:54:51.676Z,0
2018-07-10T23:55:53.069Z,0
2018-07-10T23:56:54.959Z,0
2018-07-10T23:57:56.340Z,0
2018-07-10T23:58:57.724Z,0
2018-07-10T23:59:59.110Z,0
